sensor_id;sensor_type;location;lat;lon;timestamp;pressure;altitude;pressure_sealevel;temperature;humidity
74310;BME280;62722;51.142;17.052;2022-12-08T00:02:20;99848.94;;;2.26;87.03
74310;BME280;62722;51.142;17.052;2022-12-08T00:04:47;99846.31;;;2.26;87.34
74310;BME280;62722;51.142;17.052;2022-12-08T00:07:31;99845.31;;;2.30;87.67
74310;BME280;62722;51.142;17.052;2022-12-08T00:10:17;99857.38;;;2.32;87.20
74310;BME280;62722;51.142;17.052;2022-12-08T00:12:44;99858.13;;;2.36;87.29
74310;BME280;62722;51.142;17.052;2022-12-08T00:15:11;99841.56;;;2.37;87.71
74310;BME280;62722;51.142;17.052;2022-12-08T00:17:39;99846.75;;;2.37;87.79
74310;BME280;62722;51.142;17.052;2022-12-08T00:20:07;99845.88;;;2.38;87.64
74310;BME280;62722;51.142;17.052;2022-12-08T00:22:34;99850.22;;;2.37;87.43
74310;BME280;62722;51.142;17.052;2022-12-08T00:25:02;99841.50;;;2.38;87.94
74310;BME280;62722;51.142;17.052;2022-12-08T00:27:30;99830.13;;;2.41;87.36
74310;BME280;62722;51.142;17.052;2022-12-08T00:29:57;99836.13;;;2.43;86.70
74310;BME280;62722;51.142;17.052;2022-12-08T00:32:25;99835.19;;;2.44;86.88
74310;BME280;62722;51.142;17.052;2022-12-08T00:34:52;99833.53;;;2.43;86.37
74310;BME280;62722;51.142;17.052;2022-12-08T00:37:19;99838.59;;;2.46;86.58
74310;BME280;62722;51.142;17.052;2022-12-08T00:39:46;99837.72;;;2.47;86.98
74310;BME280;62722;51.142;17.052;2022-12-08T00:42:13;99840.31;;;2.47;86.36
74310;BME280;62722;51.142;17.052;2022-12-08T00:44:43;99848.91;;;2.49;86.52
74310;BME280;62722;51.142;17.052;2022-12-08T00:47:12;99851.50;;;2.49;87.25
74310;BME280;62722;51.142;17.052;2022-12-08T00:49:40;99849.03;;;2.46;86.22
74310;BME280;62722;51.142;17.052;2022-12-08T00:52:08;99864.53;;;2.49;86.66
74310;BME280;62722;51.142;17.052;2022-12-08T00:54:37;99856.59;;;2.52;86.31
74310;BME280;62722;51.142;17.052;2022-12-08T00:57:07;99862.59;;;2.54;86.68
74310;BME280;62722;51.142;17.052;2022-12-08T00:59:34;99862.72;;;2.51;87.00
74310;BME280;62722;51.142;17.052;2022-12-08T01:02:02;99858.28;;;2.53;86.60
74310;BME280;62722;51.142;17.052;2022-12-08T01:04:29;99858.47;;;2.49;87.06
74310;BME280;62722;51.142;17.052;2022-12-08T01:06:57;99858.41;;;2.50;89.69
74310;BME280;62722;51.142;17.052;2022-12-08T01:09:24;99861.16;;;2.47;89.42
74310;BME280;62722;51.142;17.052;2022-12-08T01:11:51;99861.25;;;2.44;89.22
74310;BME280;62722;51.142;17.052;2022-12-08T01:14:18;99860.50;;;2.40;89.15
74310;BME280;62722;51.142;17.052;2022-12-08T01:16:46;99856.34;;;2.36;89.39
74310;BME280;62722;51.142;17.052;2022-12-08T01:19:15;99851.94;;;2.38;89.44
74310;BME280;62722;51.142;17.052;2022-12-08T01:21:46;99854.56;;;2.37;89.21
74310;BME280;62722;51.142;17.052;2022-12-08T01:24:14;99856.41;;;2.35;90.28
74310;BME280;62722;51.142;17.052;2022-12-08T01:26:42;99853.00;;;2.33;91.09
74310;BME280;62722;51.142;17.052;2022-12-08T01:29:10;99852.19;;;2.32;90.71
74310;BME280;62722;51.142;17.052;2022-12-08T01:31:38;99844.53;;;2.28;90.92
74310;BME280;62722;51.142;17.052;2022-12-08T01:34:06;99843.81;;;2.24;90.25
74310;BME280;62722;51.142;17.052;2022-12-08T01:36:35;99842.22;;;2.20;88.91
74310;BME280;62722;51.142;17.052;2022-12-08T01:39:04;99838.03;;;2.16;88.80
74310;BME280;62722;51.142;17.052;2022-12-08T01:41:35;99841.50;;;2.17;89.18
74310;BME280;62722;51.142;17.052;2022-12-08T01:46:46;99851.78;;;2.20;89.64
74310;BME280;62722;51.142;17.052;2022-12-08T01:49:15;99851.72;;;2.21;88.02
74310;BME280;62722;51.142;17.052;2022-12-08T01:51:50;99849.91;;;2.23;87.67
74310;BME280;62722;51.142;17.052;2022-12-08T01:54:21;99848.16;;;2.24;87.81
74310;BME280;62722;51.142;17.052;2022-12-08T01:56:55;99842.78;;;2.28;86.96
74310;BME280;62722;51.142;17.052;2022-12-08T01:59:25;99828.84;;;2.29;86.59
74310;BME280;62722;51.142;17.052;2022-12-08T02:01:53;99835.69;;;2.32;87.95
74310;BME280;62722;51.142;17.052;2022-12-08T02:04:20;99840.91;;;2.32;86.81
74310;BME280;62722;51.142;17.052;2022-12-08T02:06:50;99840.78;;;2.35;86.08
74310;BME280;62722;51.142;17.052;2022-12-08T02:09:19;99832.06;;;2.36;87.35
74310;BME280;62722;51.142;17.052;2022-12-08T02:11:48;99840.47;;;2.42;86.02
74310;BME280;62722;51.142;17.052;2022-12-08T02:14:16;99837.75;;;2.45;85.94
74310;BME280;62722;51.142;17.052;2022-12-08T02:16:48;99844.66;;;2.47;86.82
74310;BME280;62722;51.142;17.052;2022-12-08T02:19:46;99841.16;;;2.48;85.40
74310;BME280;62722;51.142;17.052;2022-12-08T02:22:28;99840.19;;;2.50;86.61
74310;BME280;62722;51.142;17.052;2022-12-08T02:25:04;99838.56;;;2.48;86.68
74310;BME280;62722;51.142;17.052;2022-12-08T02:27:41;99842.06;;;2.47;86.63
74310;BME280;62722;51.142;17.052;2022-12-08T02:30:29;99840.41;;;2.44;86.08
74310;BME280;62722;51.142;17.052;2022-12-08T02:33:25;99843.94;;;2.43;87.29
74310;BME280;62722;51.142;17.052;2022-12-08T02:36:01;99844.06;;;2.40;87.45
74310;BME280;62722;51.142;17.052;2022-12-08T02:38:44;99843.13;;;2.41;86.17
74310;BME280;62722;51.142;17.052;2022-12-08T02:41:29;99850.09;;;2.40;84.94
74310;BME280;62722;51.142;17.052;2022-12-08T02:44:03;99846.59;;;2.41;85.73
74310;BME280;62722;51.142;17.052;2022-12-08T02:46:34;99838.78;;;2.41;87.11
74310;BME280;62722;51.142;17.052;2022-12-08T02:49:05;99834.41;;;2.42;86.75
74310;BME280;62722;51.142;17.052;2022-12-08T02:51:34;99829.25;;;2.40;84.89
74310;BME280;62722;51.142;17.052;2022-12-08T02:54:02;99823.88;;;2.45;85.55
74310;BME280;62722;51.142;17.052;2022-12-08T02:56:41;99823.09;;;2.43;84.92
74310;BME280;62722;51.142;17.052;2022-12-08T02:59:22;99830.13;;;2.41;85.99
74310;BME280;62722;51.142;17.052;2022-12-08T03:02:02;99831.94;;;2.39;86.65
74310;BME280;62722;51.142;17.052;2022-12-08T03:04:38;99830.50;;;2.32;85.47
74310;BME280;62722;51.142;17.052;2022-12-08T03:07:12;99829.56;;;2.33;87.45
74310;BME280;62722;51.142;17.052;2022-12-08T03:09:45;99821.03;;;2.29;86.04
74310;BME280;62722;51.142;17.052;2022-12-08T03:12:18;99828.00;;;2.29;87.43
74310;BME280;62722;51.142;17.052;2022-12-08T03:14:51;99821.28;;;2.23;88.12
74310;BME280;62722;51.142;17.052;2022-12-08T03:17:21;99832.66;;;2.21;88.67
74310;BME280;62722;51.142;17.052;2022-12-08T03:19:51;99821.56;;;2.16;89.04
74310;BME280;62722;51.142;17.052;2022-12-08T03:22:23;99813.06;;;2.11;89.71
74310;BME280;62722;51.142;17.052;2022-12-08T03:24:52;99818.22;;;2.12;89.40
74310;BME280;62722;51.142;17.052;2022-12-08T03:27:21;99822.69;;;2.09;90.27
74310;BME280;62722;51.142;17.052;2022-12-08T03:29:51;99816.59;;;2.10;90.22
74310;BME280;62722;51.142;17.052;2022-12-08T03:32:22;99806.34;;;2.05;89.68
74310;BME280;62722;51.142;17.052;2022-12-08T03:34:55;99818.28;;;2.11;90.39
74310;BME280;62722;51.142;17.052;2022-12-08T03:37:25;99823.38;;;2.14;91.10
74310;BME280;62722;51.142;17.052;2022-12-08T03:39:53;99819.84;;;2.15;90.96
74310;BME280;62722;51.142;17.052;2022-12-08T03:42:20;99819.06;;;2.13;90.06
74310;BME280;62722;51.142;17.052;2022-12-08T03:44:48;99825.19;;;2.12;89.38
74310;BME280;62722;51.142;17.052;2022-12-08T03:47:15;99814.72;;;2.13;90.14
74310;BME280;62722;51.142;17.052;2022-12-08T03:49:42;99818.84;;;2.19;89.53
74310;BME280;62722;51.142;17.052;2022-12-08T03:52:09;99826.47;;;2.23;88.40
74310;BME280;62722;51.142;17.052;2022-12-08T03:54:38;99824.69;;;2.25;89.13
74310;BME280;62722;51.142;17.052;2022-12-08T03:57:05;99823.69;;;2.28;89.67
74310;BME280;62722;51.142;17.052;2022-12-08T03:59:32;99828.94;;;2.26;89.28
74310;BME280;62722;51.142;17.052;2022-12-08T04:01:59;99827.06;;;2.30;86.80
74310;BME280;62722;51.142;17.052;2022-12-08T04:04:26;99827.75;;;2.35;87.12
74310;BME280;62722;51.142;17.052;2022-12-08T04:06:56;99833.56;;;2.41;86.83
74310;BME280;62722;51.142;17.052;2022-12-08T04:09:23;99824.72;;;2.45;87.08
74310;BME280;62722;51.142;17.052;2022-12-08T04:11:52;99820.31;;;2.48;86.64
74310;BME280;62722;51.142;17.052;2022-12-08T04:14:19;99822.84;;;2.49;87.02
74310;BME280;62722;51.142;17.052;2022-12-08T04:16:46;99813.25;;;2.51;87.63
74310;BME280;62722;51.142;17.052;2022-12-08T04:19:14;99814.13;;;2.50;89.56
74310;BME280;62722;51.142;17.052;2022-12-08T04:21:41;99821.06;;;2.51;88.08
74310;BME280;62722;51.142;17.052;2022-12-08T04:24:08;99808.94;;;2.50;89.79
74310;BME280;62722;51.142;17.052;2022-12-08T04:26:35;99807.22;;;2.49;88.75
74310;BME280;62722;51.142;17.052;2022-12-08T04:29:04;99803.84;;;2.47;87.69
74310;BME280;62722;51.142;17.052;2022-12-08T04:31:31;99804.69;;;2.48;88.30
74310;BME280;62722;51.142;17.052;2022-12-08T04:33:59;99800.25;;;2.50;89.12
74310;BME280;62722;51.142;17.052;2022-12-08T04:36:26;99796.81;;;2.49;88.54
74310;BME280;62722;51.142;17.052;2022-12-08T04:38:53;99790.69;;;2.50;88.38
74310;BME280;62722;51.142;17.052;2022-12-08T04:41:20;99803.72;;;2.50;89.85
74310;BME280;62722;51.142;17.052;2022-12-08T04:43:47;99798.50;;;2.50;90.21
74310;BME280;62722;51.142;17.052;2022-12-08T04:46:16;99792.31;;;2.53;89.99
74310;BME280;62722;51.142;17.052;2022-12-08T04:48:43;99800.84;;;2.56;89.66
74310;BME280;62722;51.142;17.052;2022-12-08T04:51:14;99800.81;;;2.58;89.60
74310;BME280;62722;51.142;17.052;2022-12-08T04:53:42;99793.03;;;2.56;89.06
74310;BME280;62722;51.142;17.052;2022-12-08T04:56:11;99793.03;;;2.56;89.47
74310;BME280;62722;51.142;17.052;2022-12-08T04:58:39;99788.00;;;2.52;88.74
74310;BME280;62722;51.142;17.052;2022-12-08T05:01:06;99791.59;;;2.49;89.84
74310;BME280;62722;51.142;17.052;2022-12-08T05:03:35;99793.31;;;2.50;90.56
74310;BME280;62722;51.142;17.052;2022-12-08T05:06:03;99786.50;;;2.46;89.62
74310;BME280;62722;51.142;17.052;2022-12-08T05:08:31;99788.31;;;2.44;90.75
74310;BME280;62722;51.142;17.052;2022-12-08T05:11:02;99784.16;;;2.40;91.07
74310;BME280;62722;51.142;17.052;2022-12-08T05:13:29;99779.84;;;2.39;90.76
74310;BME280;62722;51.142;17.052;2022-12-08T05:16:01;99779.97;;;2.36;90.91
74310;BME280;62722;51.142;17.052;2022-12-08T05:18:29;99781.00;;;2.32;90.32
74310;BME280;62722;51.142;17.052;2022-12-08T05:20:58;99785.41;;;2.30;91.38
74310;BME280;62722;51.142;17.052;2022-12-08T05:23:25;99794.16;;;2.29;91.17
74310;BME280;62722;51.142;17.052;2022-12-08T05:25:53;99789.00;;;2.27;91.69
74310;BME280;62722;51.142;17.052;2022-12-08T05:28:20;99789.03;;;2.26;90.70
74310;BME280;62722;51.142;17.052;2022-12-08T05:30:47;99777.84;;;2.24;89.96
74310;BME280;62722;51.142;17.052;2022-12-08T05:33:15;99778.75;;;2.23;91.05
74310;BME280;62722;51.142;17.052;2022-12-08T05:35:42;99781.47;;;2.20;90.54
74310;BME280;62722;51.142;17.052;2022-12-08T05:42:22;99771.41;;;2.11;90.11
74310;BME280;62722;51.142;17.052;2022-12-08T05:44:49;99765.78;;;2.00;90.62
74310;BME280;62722;51.142;17.052;2022-12-08T05:47:16;99768.47;;;1.98;92.01
74310;BME280;62722;51.142;17.052;2022-12-08T05:49:44;99767.59;;;1.98;92.32
74310;BME280;62722;51.142;17.052;2022-12-08T05:52:11;99775.47;;;1.96;91.71
74310;BME280;62722;51.142;17.052;2022-12-08T05:54:38;99774.69;;;1.94;91.99
74310;BME280;62722;51.142;17.052;2022-12-08T05:57:05;99777.41;;;1.91;93.01
74310;BME280;62722;51.142;17.052;2022-12-08T05:59:34;99775.09;;;1.83;90.99
74310;BME280;62722;51.142;17.052;2022-12-08T06:02:02;99778.59;;;1.82;92.38
74310;BME280;62722;51.142;17.052;2022-12-08T06:04:30;99773.50;;;1.79;91.93
74310;BME280;62722;51.142;17.052;2022-12-08T06:06:57;99779.72;;;1.75;91.83
74310;BME280;62722;51.142;17.052;2022-12-08T06:09:25;99769.56;;;1.69;92.61
74310;BME280;62722;51.142;17.052;2022-12-08T06:11:52;99773.06;;;1.68;91.35
74310;BME280;62722;51.142;17.052;2022-12-08T06:14:19;99777.56;;;1.63;91.66
74310;BME280;62722;51.142;17.052;2022-12-08T06:16:48;99776.63;;;1.66;92.24
74310;BME280;62722;51.142;17.052;2022-12-08T06:19:15;99773.09;;;1.67;92.53
74310;BME280;62722;51.142;17.052;2022-12-08T06:21:42;99777.50;;;1.66;92.45
74310;BME280;62722;51.142;17.052;2022-12-08T06:24:09;99779.03;;;1.70;92.43
74310;BME280;62722;51.142;17.052;2022-12-08T06:26:37;99763.44;;;1.70;92.14
74310;BME280;62722;51.142;17.052;2022-12-08T06:29:06;99767.75;;;1.71;92.93
74310;BME280;62722;51.142;17.052;2022-12-08T06:31:33;99768.56;;;1.73;92.08
74310;BME280;62722;51.142;17.052;2022-12-08T06:34:02;99767.41;;;1.80;92.42
74310;BME280;62722;51.142;17.052;2022-12-08T06:36:29;99769.16;;;1.80;92.31
74310;BME280;62722;51.142;17.052;2022-12-08T06:38:56;99759.59;;;1.80;92.27
74310;BME280;62722;51.142;17.052;2022-12-08T06:41:24;99769.09;;;1.81;92.03
74310;BME280;62722;51.142;17.052;2022-12-08T06:43:54;99773.41;;;1.82;92.47
74310;BME280;62722;51.142;17.052;2022-12-08T06:46:21;99776.06;;;1.81;91.72
74310;BME280;62722;51.142;17.052;2022-12-08T06:48:49;99775.94;;;1.84;92.18
74310;BME280;62722;51.142;17.052;2022-12-08T06:51:19;99771.69;;;1.81;92.29
74310;BME280;62722;51.142;17.052;2022-12-08T06:53:47;99776.88;;;1.81;92.02
74310;BME280;62722;51.142;17.052;2022-12-08T06:56:15;99776.88;;;1.81;93.04
74310;BME280;62722;51.142;17.052;2022-12-08T06:58:44;99782.91;;;1.83;91.96
74310;BME280;62722;51.142;17.052;2022-12-08T07:01:12;99784.66;;;1.83;92.26
74310;BME280;62722;51.142;17.052;2022-12-08T07:03:40;99775.22;;;1.80;92.50
74310;BME280;62722;51.142;17.052;2022-12-08T07:06:13;99779.63;;;1.78;92.29
74310;BME280;62722;51.142;17.052;2022-12-08T07:08:42;99776.13;;;1.79;91.88
74310;BME280;62722;51.142;17.052;2022-12-08T07:11:10;99776.88;;;1.81;92.43
74310;BME280;62722;51.142;17.052;2022-12-08T07:13:38;99776.88;;;1.81;92.49
74310;BME280;62722;51.142;17.052;2022-12-08T07:16:06;99775.94;;;1.84;92.65
74310;BME280;62722;51.142;17.052;2022-12-08T07:18:34;99778.44;;;1.87;92.47
74310;BME280;62722;51.142;17.052;2022-12-08T07:21:13;99776.69;;;1.87;91.34
74310;BME280;62722;51.142;17.052;2022-12-08T07:23:44;99776.59;;;1.89;92.07
74310;BME280;62722;51.142;17.052;2022-12-08T07:26:12;99776.56;;;1.90;92.55
74310;BME280;62722;51.142;17.052;2022-12-08T07:28:40;99779.13;;;1.92;92.03
74310;BME280;62722;51.142;17.052;2022-12-08T07:31:16;99778.03;;;1.98;91.42
74310;BME280;62722;51.142;17.052;2022-12-08T07:33:44;99769.53;;;1.92;91.25
74310;BME280;62722;51.142;17.052;2022-12-08T07:36:11;99777.13;;;1.99;91.42
74310;BME280;62722;51.142;17.052;2022-12-08T07:38:38;99778.56;;;2.06;90.69
74310;BME280;62722;51.142;17.052;2022-12-08T07:41:10;99770.66;;;2.09;90.96
74310;BME280;62722;51.142;17.052;2022-12-08T07:43:38;99773.28;;;2.07;91.43
74310;BME280;62722;51.142;17.052;2022-12-08T07:46:05;99774.94;;;2.10;91.28
74310;BME280;62722;51.142;17.052;2022-12-08T07:48:32;99775.69;;;2.13;90.88
74310;BME280;62722;51.142;17.052;2022-12-08T07:50:59;99773.81;;;2.17;90.86
74310;BME280;62722;51.142;17.052;2022-12-08T07:53:27;99785.06;;;2.17;91.38
74310;BME280;62722;51.142;17.052;2022-12-08T07:55:54;99781.44;;;2.21;90.36
74310;BME280;62722;51.142;17.052;2022-12-08T07:58:23;99776.09;;;2.24;90.40
74310;BME280;62722;51.142;17.052;2022-12-08T08:00:50;99774.22;;;2.28;90.04
74310;BME280;62722;51.142;17.052;2022-12-08T08:03:18;99780.16;;;2.31;89.63
74310;BME280;62722;51.142;17.052;2022-12-08T08:05:46;99768.75;;;2.34;89.41
74310;BME280;62722;51.142;17.052;2022-12-08T08:08:15;99773.78;;;2.38;90.10
74310;BME280;62722;51.142;17.052;2022-12-08T08:10:42;99774.53;;;2.42;89.41
74310;BME280;62722;51.142;17.052;2022-12-08T08:13:09;99783.09;;;2.44;89.70
74310;BME280;62722;51.142;17.052;2022-12-08T08:15:38;99786.34;;;2.51;89.37
74310;BME280;62722;51.142;17.052;2022-12-08T08:18:06;99783.53;;;2.55;88.91
74310;BME280;62722;51.142;17.052;2022-12-08T08:20:33;99789.50;;;2.59;89.25
74310;BME280;62722;51.142;17.052;2022-12-08T08:23:00;99790.06;;;2.65;87.66
74310;BME280;62722;51.142;17.052;2022-12-08T08:25:27;99778.63;;;2.69;88.13
74310;BME280;62722;51.142;17.052;2022-12-08T08:27:55;99783.56;;;2.75;87.14
74310;BME280;62722;51.142;17.052;2022-12-08T08:30:22;99786.84;;;2.80;87.71
74310;BME280;62722;51.142;17.052;2022-12-08T08:32:50;99778.75;;;2.86;88.50
74310;BME280;62722;51.142;17.052;2022-12-08T08:35:18;99771.53;;;2.93;87.95
74310;BME280;62722;51.142;17.052;2022-12-08T08:37:45;99773.94;;;2.98;88.18
74310;BME280;62722;51.142;17.052;2022-12-08T08:40:12;99772.81;;;3.03;87.70
74310;BME280;62722;51.142;17.052;2022-12-08T08:42:39;99785.66;;;3.08;87.55
74310;BME280;62722;51.142;17.052;2022-12-08T08:45:07;99775.09;;;3.11;87.23
74310;BME280;62722;51.142;17.052;2022-12-08T08:47:34;99785.34;;;3.15;87.65
74310;BME280;62722;51.142;17.052;2022-12-08T08:50:03;99764.47;;;3.15;86.27
74310;BME280;62722;51.142;17.052;2022-12-08T08:52:31;99767.81;;;3.19;86.22
74310;BME280;62722;51.142;17.052;2022-12-08T08:54:58;99763.28;;;3.22;86.56
74310;BME280;62722;51.142;17.052;2022-12-08T08:57:25;99772.69;;;3.26;85.44
74310;BME280;62722;51.142;17.052;2022-12-08T08:59:52;99768.28;;;3.28;85.59
74310;BME280;62722;51.142;17.052;2022-12-08T09:02:20;99773.34;;;3.31;86.34
74310;BME280;62722;51.142;17.052;2022-12-08T09:04:48;99763.97;;;3.27;85.75
74310;BME280;62722;51.142;17.052;2022-12-08T09:07:16;99767.13;;;3.34;86.34
74310;BME280;62722;51.142;17.052;2022-12-08T09:09:43;99762.81;;;3.33;87.30
74310;BME280;62722;51.142;17.052;2022-12-08T09:12:11;99757.50;;;3.36;86.89
74310;BME280;62722;51.142;17.052;2022-12-08T09:14:38;99751.34;;;3.37;85.99
74310;BME280;62722;51.142;17.052;2022-12-08T09:17:06;99751.19;;;3.40;86.20
74310;BME280;62722;51.142;17.052;2022-12-08T09:19:33;99756.16;;;3.46;84.13
74310;BME280;62722;51.142;17.052;2022-12-08T09:22:01;99751.66;;;3.50;84.86
74310;BME280;62722;51.142;17.052;2022-12-08T09:24:29;99752.50;;;3.50;84.88
74310;BME280;62722;51.142;17.052;2022-12-08T09:26:56;99751.38;;;3.56;84.86
74310;BME280;62722;51.142;17.052;2022-12-08T09:29:24;99746.16;;;3.56;84.67
74310;BME280;62722;51.142;17.052;2022-12-08T09:31:51;99740.78;;;3.59;83.32
74310;BME280;62722;51.142;17.052;2022-12-08T09:34:19;99748.50;;;3.62;82.81
74310;BME280;62722;51.142;17.052;2022-12-08T09:36:46;99746.59;;;3.65;82.02
74310;BME280;62722;51.142;17.052;2022-12-08T09:39:13;99744.56;;;3.72;81.42
74310;BME280;62722;51.142;17.052;2022-12-08T09:41:44;99744.47;;;3.73;80.41
74310;BME280;62722;51.142;17.052;2022-12-08T09:44:36;99737.28;;;3.78;78.78
74310;BME280;62722;51.142;17.052;2022-12-08T09:47:07;99741.38;;;3.84;78.81
74310;BME280;62722;51.142;17.052;2022-12-08T09:49:41;99736.88;;;3.87;79.72
74310;BME280;62722;51.142;17.052;2022-12-08T09:52:18;99731.41;;;3.92;78.20
74310;BME280;62722;51.142;17.052;2022-12-08T09:54:46;99737.34;;;3.96;77.86
74310;BME280;62722;51.142;17.052;2022-12-08T09:57:18;99734.72;;;3.96;78.51
74310;BME280;62722;51.142;17.052;2022-12-08T09:59:50;99728.53;;;3.98;77.43
74310;BME280;62722;51.142;17.052;2022-12-08T10:02:21;99730.19;;;3.99;78.12
74310;BME280;62722;51.142;17.052;2022-12-08T10:04:57;99735.44;;;3.99;78.49
74310;BME280;62722;51.142;17.052;2022-12-08T10:07:32;99725.78;;;4.01;78.73
74310;BME280;62722;51.142;17.052;2022-12-08T10:10:10;99733.47;;;4.04;78.14
74310;BME280;62722;51.142;17.052;2022-12-08T10:12:45;99729.22;;;4.02;78.36
74310;BME280;62722;51.142;17.052;2022-12-08T10:15:31;99731.19;;;3.97;78.58
74310;BME280;62722;51.142;17.052;2022-12-08T10:18:10;99730.34;;;3.96;78.03
74310;BME280;62722;51.142;17.052;2022-12-08T10:20:41;99714.69;;;3.96;77.62
74310;BME280;62722;51.142;17.052;2022-12-08T10:23:17;99710.31;;;3.97;77.86
74310;BME280;62722;51.142;17.052;2022-12-08T10:25:47;99720.59;;;4.00;78.62
74310;BME280;62722;51.142;17.052;2022-12-08T10:28:16;99711.72;;;4.04;78.78
74310;BME280;62722;51.142;17.052;2022-12-08T10:30:43;99712.41;;;4.07;77.87
74310;BME280;62722;51.142;17.052;2022-12-08T10:33:13;99709.59;;;4.12;77.66
74310;BME280;62722;51.142;17.052;2022-12-08T10:35:44;99708.47;;;4.17;77.97
74310;BME280;62722;51.142;17.052;2022-12-08T10:38:17;99702.09;;;4.23;77.66
74310;BME280;62722;51.142;17.052;2022-12-08T10:40:45;99700.97;;;4.28;76.50
74310;BME280;62722;51.142;17.052;2022-12-08T10:43:16;99701.78;;;4.29;75.90
74310;BME280;62722;51.142;17.052;2022-12-08T10:45:44;99700.97;;;4.28;77.25
74310;BME280;62722;51.142;17.052;2022-12-08T10:48:15;99693.94;;;4.29;76.35
74310;BME280;62722;51.142;17.052;2022-12-08T10:50:44;99695.56;;;4.31;76.38
74310;BME280;62722;51.142;17.052;2022-12-08T10:53:14;99704.09;;;4.35;76.35
74310;BME280;62722;51.142;17.052;2022-12-08T10:55:43;99696.13;;;4.38;76.70
74310;BME280;62722;51.142;17.052;2022-12-08T10:58:26;99689.97;;;4.39;76.32
74310;BME280;62722;51.142;17.052;2022-12-08T11:00:56;99684.97;;;4.34;75.06
74310;BME280;62722;51.142;17.052;2022-12-08T11:03:27;99690.13;;;4.36;76.83
74310;BME280;62722;51.142;17.052;2022-12-08T11:05:58;99686.66;;;4.35;76.93
74310;BME280;62722;51.142;17.052;2022-12-08T11:08:27;99689.28;;;4.35;76.65
74310;BME280;62722;51.142;17.052;2022-12-08T11:10:54;99687.53;;;4.36;76.80
74310;BME280;62722;51.142;17.052;2022-12-08T11:13:24;99683.06;;;4.38;76.19
74310;BME280;62722;51.142;17.052;2022-12-08T11:15:55;99685.50;;;4.41;77.11
74310;BME280;62722;51.142;17.052;2022-12-08T11:18:26;99675.91;;;4.41;76.96
74310;BME280;62722;51.142;17.052;2022-12-08T11:20:59;99679.28;;;4.43;76.92
74310;BME280;62722;51.142;17.052;2022-12-08T11:23:28;99680.91;;;4.46;76.18
74310;BME280;62722;51.142;17.052;2022-12-08T11:26:02;99674.78;;;4.47;76.32
74310;BME280;62722;51.142;17.052;2022-12-08T11:28:32;99671.22;;;4.48;77.11
74310;BME280;62722;51.142;17.052;2022-12-08T11:31:05;99673.97;;;4.45;75.97
74310;BME280;62722;51.142;17.052;2022-12-08T11:33:34;99673.81;;;4.48;77.03
74310;BME280;62722;51.142;17.052;2022-12-08T11:36:03;99672.84;;;4.51;76.78
74310;BME280;62722;51.142;17.052;2022-12-08T11:38:32;99669.28;;;4.52;77.50
74310;BME280;62722;51.142;17.052;2022-12-08T11:41:03;99663.16;;;4.53;76.67
74310;BME280;62722;51.142;17.052;2022-12-08T11:43:41;99672.75;;;4.52;76.09
74310;BME280;62722;51.142;17.052;2022-12-08T11:46:15;99669.22;;;4.53;77.10
74310;BME280;62722;51.142;17.052;2022-12-08T11:48:47;99669.22;;;4.53;75.77
74310;BME280;62722;51.142;17.052;2022-12-08T11:51:18;99671.91;;;4.52;75.69
74310;BME280;62722;51.142;17.052;2022-12-08T11:53:50;99668.22;;;4.56;75.22
74310;BME280;62722;51.142;17.052;2022-12-08T11:56:23;99668.22;;;4.56;75.47
74310;BME280;62722;51.142;17.052;2022-12-08T11:58:59;99658.78;;;4.53;76.01
74310;BME280;62722;51.142;17.052;2022-12-08T12:01:27;99660.69;;;4.50;75.50
74310;BME280;62722;51.142;17.052;2022-12-08T12:03:59;99657.41;;;4.46;76.54
74310;BME280;62722;51.142;17.052;2022-12-08T12:09:33;99658.09;;;4.50;77.11
74310;BME280;62722;51.142;17.052;2022-12-08T12:12:08;99661.53;;;4.50;75.49
74310;BME280;62722;51.142;17.052;2022-12-08T12:15:03;99656.31;;;4.50;76.47
74310;BME280;62722;51.142;17.052;2022-12-08T12:17:40;99652.00;;;4.49;76.55
74310;BME280;62722;51.142;17.052;2022-12-08T12:20:14;99661.59;;;4.49;76.33
74310;BME280;62722;51.142;17.052;2022-12-08T12:22:46;99661.44;;;4.52;76.78
74310;BME280;62722;51.142;17.052;2022-12-08T12:25:20;99653.53;;;4.53;76.09
74310;BME280;62722;51.142;17.052;2022-12-08T12:27:50;99652.63;;;4.54;77.83
74310;BME280;62722;51.142;17.052;2022-12-08T12:30:22;99653.38;;;4.56;75.61
74310;BME280;62722;51.142;17.052;2022-12-08T12:32:52;99656.84;;;4.57;75.72
74310;BME280;62722;51.142;17.052;2022-12-08T12:35:27;99656.00;;;4.56;75.71
74310;BME280;62722;51.142;17.052;2022-12-08T12:37:59;99653.38;;;4.56;75.46
74310;BME280;62722;51.142;17.052;2022-12-08T12:40:35;99653.53;;;4.53;75.99
74310;BME280;62722;51.142;17.052;2022-12-08T12:43:23;99649.47;;;4.48;75.86
74310;BME280;62722;51.142;17.052;2022-12-08T12:52:00;99640.41;;;4.37;78.35
74310;BME280;62722;51.142;17.052;2022-12-08T12:54:27;99644.03;;;4.35;77.00
74310;BME280;62722;51.142;17.052;2022-12-08T12:57:14;99638.97;;;4.32;78.42
74310;BME280;62722;51.142;17.052;2022-12-08T12:59:47;99638.31;;;4.27;76.72
74310;BME280;62722;51.142;17.052;2022-12-08T13:02:37;99639.41;;;4.23;77.98
74310;BME280;62722;51.142;17.052;2022-12-08T13:05:08;99641.25;;;4.21;76.95
74310;BME280;62722;51.142;17.052;2022-12-08T13:07:42;99636.16;;;4.18;77.19
74310;BME280;62722;51.142;17.052;2022-12-08T13:10:16;99638.16;;;4.13;79.15
74310;BME280;62722;51.142;17.052;2022-12-08T13:12:44;99638.38;;;4.08;79.49
74310;BME280;62722;51.142;17.052;2022-12-08T13:15:33;99628.63;;;3.95;80.65
74310;BME280;62722;51.142;17.052;2022-12-08T13:18:03;99629.59;;;3.92;79.97
74310;BME280;62722;51.142;17.052;2022-12-08T13:20:39;99627.22;;;3.87;79.94
74310;BME280;62722;51.142;17.052;2022-12-08T13:23:25;99626.53;;;3.84;80.30
74310;BME280;62722;51.142;17.052;2022-12-08T13:26:10;99618.13;;;3.77;80.99
74310;BME280;62722;51.142;17.052;2022-12-08T13:31:46;99625.19;;;3.75;80.67
74310;BME280;62722;51.142;17.052;2022-12-08T13:34:18;99625.41;;;3.71;82.21
74310;BME280;62722;51.142;17.052;2022-12-08T13:36:56;99631.53;;;3.70;79.47